16h34 EST


 

Suivi/Infos de l'aéroport


-ou-


 

Suivi des vols en temps réelNetjets Aviation #382

Thumbnail
Netjets Aviation "Execjet" (tous les vols) · Columbus, OH
Terrance B. Lettsome Int'l ( – info)
Beef Island / Tortola VG
Int'l Bradley ( – info)
Windsor Locks, CT
13h24 AST
16h14 EST
Prévu: 11h02 AST
Prévu: 14h07 EST
Durée: 3 heures 50 minutes
vendredi, 27 février 2015
Statut A atterri il y a 19 minutes (journal de vol & graphique)
Avion Cessna Citation Sovereign (biréacteur) (C680/L – photos)
Vitesse Plan de vol: 420 kts (graphique)
Altitude Plan de vol: 43.000 Pieds (graphique)
Distance En ligne droite 2.727 km    Prévue 2.890 km    Parcourue 3.001 km
Route STT SJU RTE7 PLING A300 LENNT L455 KINCH L455 SAVIK L455 GEDIC J174 HTO
Une partie au moins de ce vol se déroule hors de la zone de services primaire de FlightAware. Pour en savoir plus sur la couverture et la zone de services de FlightAware.
JOURNAL DE L'ACTIVITE
Vous voulez une recherche complète sur l'historique de EJA382 depuis 1998? Achetez maintenant. Recevez-le dans l'heure.
Date Avion Provenance Destination Départ Arrivée Durée
27-02-2015 C680/LTerrance B. Lettsome Int'l ()Int'l Bradley () 13h24 AST 16h14 EST 3:50
27-02-2015 C680/LInt'l de Miami ()Terrance B. Lettsome Int'l () 08h38 EST 11h54 AST 2:16
27-02-2015 C680/LPalm Beach Intl ()Int'l de Miami () 07h02 EST 07h26 EST 0:24
26-02-2015 C680/LBlue Grass ()Palm Beach Intl () 13h32 EST 15h28 EST 1:56
26-02-2015 C680/LAugusta Regional ()Blue Grass () 10h47 EST 11h42 EST 0:55
26-02-2015 C680/LPalm Beach Intl ()Augusta Regional () 08h22 EST 09h32 EST 1:10
25-02-2015 C680/LPort Columbus Intl ()Palm Beach Intl () 15h30 EST 17h53 EST 2:23
25-02-2015 C680/LCincinnati Muni ()Port Columbus Intl () 14h01 EST 14h28 EST 0:27
25-02-2015 C680/LKey West Intl ()Cincinnati Muni () 09h54 EST 12h17 EST 2:23
24-02-2015 C680/LSouthwest Florida Intl ()Key West Intl () 20h37 EST 21h03 EST 0:26
24-02-2015 C680/LInt'l de Miami ()Southwest Florida Intl () 19h05 EST 19h32 EST 0:27
24-02-2015 C680/LOcean Reef Club ()Int'l de Miami () 16h35 EST 16h53 EST 0:18
24-02-2015 C680/LCentennial ()Ocean Reef Club () 10h14 MST 15h32 EST 3:17
24-02-2015 C680/LTucson Intl ()Centennial () 07h35 MST 09h04 MST 1:29
23-02-2015 C680/LSalina Rgnl ()Tucson Intl () 16h35 CST 17h54 MST 2:18
23-02-2015 C680/LInt'l Logan ()Salina Rgnl () 13h10 EST 15h58 CST 3:48
23-02-2015 C680/LInt'l Thurgood Marshall de Baltimore-Washington ()Int'l Logan () 09h45 EST 10h38 EST 0:53
22-02-2015 C680/LLaGuardia ()Int'l Thurgood Marshall de Baltimore-Washington () 20h15 EST 20h59 EST 0:44
22-02-2015 C680/LLuis Munoz Marin Intl ()LaGuardia () 15h28 AST 18h31 EST 4:03
22-02-2015 C680/LInt'l de Miami ()Luis Munoz Marin Intl () 10h38 EST 13h43 AST 2:05
21-02-2015 C680/LNaples Muni ()Int'l de Miami () 18h54 EST 19h14 EST 0:20
21-02-2015 C680/LSpirit of St Louis ()Naples Muni () 10h07 CST 13h13 EST 2:06
20-02-2015 C680/LEl Paso Intl ()Spirit of St Louis () 14h29 MST 17h26 CST 1:57
20-02-2015 C680/LInt'l Sky Harbor de Phoenix ()El Paso Intl () 12h23 MST 13h08 MST 0:45
19-02-2015 C680/LAmarillo Intl ()Int'l Sky Harbor de Phoenix () 13h56 CST 14h41 MST 1:45
19-02-2015 C680/LAmarillo Intl ()Scottsdale () 13h56 CST Dérouté
18-02-2015 C680/LScottsdale ()Amarillo Intl () 19h51 MST 22h05 CST 1:14
18-02-2015 C680/LLivermore Muni ()Scottsdale () 16h38 PST 19h11 MST 1:33
18-02-2015 C680/LLivermore Muni ()Palm Springs Intl () 16h38 PST Dérouté
18-02-2015 C680/LBermuda Dunes ()Livermore Muni () 14h02 PST 15h06 PST 1:04
18-02-2015 C680/LJacqueline Cochran Rgnl ()Bermuda Dunes () 10h30 PST 10h32 PST 0:02
18-02-2015 C680/LReno/Tahoe Intl ()Jacqueline Cochran Rgnl () 08h18 PST 09h29 PST 1:11
18-02-2015 C680/LVan Nuys ()Reno/Tahoe Intl () 05h42 PST 06h36 PST 0:54
17-02-2015 C680/LInt'l de Salt Lake City ()Van Nuys () 14h04 MST 14h27 PST 1:23
17-02-2015 C680/LGarden City Rgnl ()Int'l de Salt Lake City () 09h37 CST 10h23 MST 1:46
17-02-2015 C680/LCentennial ()Garden City Rgnl () 07h14 MST 08h52 CST 0:38
16-02-2015 C680Los Cabos Int'l ()Centennial () 16h15 MST 17h36 MST 1:21
16-02-2015 C680/LMission Field ()Los Cabos Int'l () 10h35 MST 13h44 MST (?) 3:09
16-02-2015 C680/LInt'l de Salt Lake City ()Mission Field () 08h35 MST 09h52 MST 1:17
Les membres inscrits (l'inscription est gratuite et facile!) voient 4 months d'historique. S'inscrire